createdAt,value
2023-02-07T01:39:18.168Z,3.50
2023-02-07T01:40:18.266Z,3.51
2023-02-07T01:41:18.348Z,3.52
2023-02-07T01:42:18.426Z,3.51
2023-02-07T01:43:18.513Z,3.52
2023-02-07T01:44:18.604Z,3.39
2023-02-07T01:45:18.697Z,3.41
2023-02-07T01:46:18.810Z,3.42
2023-02-07T01:47:18.843Z,3.36
2023-02-07T01:48:18.925Z,3.20
2023-02-07T01:49:18.988Z,3.32
2023-02-07T01:50:19.095Z,3.34
2023-02-07T01:51:19.161Z,3.25
2023-02-07T01:52:19.266Z,3.24
2023-02-07T01:53:19.363Z,3.30
2023-02-07T01:54:19.457Z,3.28
2023-02-07T01:55:19.557Z,3.25
2023-02-07T01:56:30.811Z,3.21
2023-02-07T01:57:20.701Z,3.28
2023-02-07T01:58:19.763Z,3.34
2023-02-07T01:59:19.835Z,3.39
2023-02-07T02:00:19.903Z,3.39
2023-02-07T02:01:19.994Z,3.46
2023-02-07T02:02:20.046Z,3.38
2023-02-07T02:03:20.111Z,3.39
2023-02-07T02:04:20.186Z,3.35
2023-02-07T02:05:20.258Z,3.13
2023-02-07T02:06:20.342Z,2.56
2023-02-07T02:07:20.424Z,2.69
2023-02-07T02:08:20.501Z,2.92
2023-02-07T02:09:20.586Z,2.92
2023-02-07T02:10:20.673Z,2.98
2023-02-07T02:11:20.763Z,2.99
2023-02-07T03:26:28.139Z,2.76
2023-02-07T05:11:38.132Z,1.67
2023-02-07T05:12:38.244Z,1.82
2023-02-07T05:13:38.358Z,1.93
2023-02-07T05:14:38.500Z,1.95
2023-02-07T05:15:38.973Z,1.98
2023-02-07T05:16:38.790Z,2.05
2023-02-07T05:17:38.888Z,1.98
2023-02-07T05:18:39.013Z,2.08
2023-02-07T05:19:39.116Z,2.13
2023-02-07T05:21:39.360Z,2.12
2023-02-07T06:05:48.352Z,-0.34
2023-02-07T06:06:48.707Z,-0.62
2023-02-07T06:07:49.070Z,-0.43
2023-02-07T06:08:49.382Z,-0.27
2023-02-07T06:09:49.671Z,-0.50
2023-02-07T06:42:58.189Z,-1.23
2023-02-07T06:43:58.574Z,-1.13
2023-02-07T06:44:58.864Z,-1.33
2023-02-07T06:45:59.136Z,-1.34
2023-02-07T06:46:59.411Z,-1.26
2023-02-07T06:47:59.706Z,-1.27
2023-02-07T06:48:59.994Z,-1.37
2023-02-07T06:50:00.288Z,-1.41
2023-02-07T06:51:00.585Z,-1.43
2023-02-07T06:52:00.876Z,-1.24
2023-02-07T06:53:01.170Z,-1.09
2023-02-07T06:54:01.436Z,-0.88
2023-02-07T06:55:01.704Z,-1.05
2023-02-07T06:56:01.997Z,-1.02
2023-02-07T06:57:02.284Z,-1.20
2023-02-07T06:58:03.109Z,-1.20
2023-02-07T06:59:02.727Z,-1.03
2023-02-07T07:00:02.933Z,-1.12
2023-02-07T07:08:04.241Z,-0.78
2023-02-07T07:09:04.411Z,-0.99
2023-02-07T07:26:08.219Z,-1.72
2023-02-07T07:27:08.465Z,-1.55
2023-02-07T07:28:08.718Z,-1.52
2023-02-07T07:29:08.939Z,-1.40
2023-02-07T07:30:10.566Z,-1.16
2023-02-07T07:31:09.463Z,-1.07
2023-02-07T07:32:09.479Z,-0.96
2023-02-07T07:33:09.659Z,-1.02
2023-02-07T07:34:09.791Z,-1.34
2023-02-07T07:35:09.936Z,-1.06
2023-02-07T07:36:10.136Z,-0.81
2023-02-07T07:37:10.211Z,-1.43
2023-02-07T07:38:10.362Z,-1.23
2023-02-07T07:39:10.509Z,-1.38
2023-02-07T07:40:10.649Z,-1.65
2023-02-07T07:41:11.621Z,-1.45
2023-02-07T07:42:10.948Z,-1.34
2023-02-07T07:43:11.110Z,-1.24
2023-02-07T07:44:11.250Z,-1.43
2023-02-07T07:45:11.389Z,-1.34
2023-02-07T07:46:11.539Z,-1.38
2023-02-07T07:47:11.679Z,-1.43
2023-02-07T07:48:11.847Z,-1.52
2023-02-07T07:50:12.122Z,-1.55
2023-02-07T07:51:12.279Z,-1.64
2023-02-07T07:52:12.425Z,-1.30
2023-02-07T07:53:12.708Z,-1.24
2023-02-07T07:54:12.889Z,-1.16
2023-02-07T08:00:13.484Z,-1.12
2023-02-07T08:30:18.223Z,-0.25
2023-02-07T08:32:18.634Z,-0.13
2023-02-07T09:24:28.339Z,1.37
2023-02-07T09:25:28.561Z,1.54
2023-02-07T09:26:28.761Z,1.54
2023-02-07T09:27:28.948Z,1.61
2023-02-07T09:28:29.234Z,1.57
2023-02-07T09:29:29.670Z,1.43
2023-02-07T09:30:29.809Z,1.43
2023-02-07T09:31:30.125Z,1.30
2023-02-07T09:32:30.271Z,1.29
2023-02-07T09:33:30.521Z,1.37
2023-02-07T09:34:30.793Z,1.34
2023-02-07T09:38:31.721Z,1.54
2023-02-07T10:07:40.134Z,1.98
2023-02-07T10:15:38.203Z,2.12
2023-02-07T10:16:38.315Z,2.05
2023-02-07T10:17:38.427Z,2.24
2023-02-07T10:18:38.524Z,2.24
2023-02-07T10:19:38.613Z,2.52
2023-02-07T10:20:38.894Z,2.43
2023-02-07T10:21:38.797Z,2.33
2023-02-07T10:22:38.950Z,2.31
2023-02-07T10:23:39.030Z,2.44
2023-02-07T10:24:39.124Z,2.43
2023-02-07T10:25:39.241Z,2.56
2023-02-07T10:26:39.339Z,2.59
2023-02-07T10:27:39.433Z,2.61
2023-02-07T10:28:39.534Z,2.76
2023-02-07T10:29:39.637Z,2.82
2023-02-07T10:30:40.185Z,2.90
2023-02-07T10:31:39.839Z,2.89
2023-02-07T10:32:39.990Z,2.95
2023-02-07T10:33:39.990Z,3.13
2023-02-07T10:34:40.066Z,3.06
2023-02-07T10:35:40.155Z,3.21
2023-02-07T10:36:40.234Z,3.03
2023-02-07T10:37:41.121Z,3.11
2023-02-07T10:38:40.433Z,3.06
2023-02-07T11:40:48.289Z,5.02
2023-02-07T11:41:48.521Z,5.01
2023-02-07T11:42:48.730Z,4.98
2023-02-07T11:43:48.922Z,4.95
2023-02-07T11:44:49.124Z,4.97
2023-02-07T11:45:49.304Z,5.00
2023-02-07T11:46:51.195Z,5.02
2023-02-07T11:47:49.602Z,5.15
2023-02-07T11:48:49.659Z,5.21
2023-02-07T11:49:49.737Z,5.39
2023-02-07T11:50:49.846Z,5.45
2023-02-07T11:51:49.929Z,5.35
2023-02-07T11:52:50.033Z,5.36
2023-02-07T11:53:50.107Z,5.25
2023-02-07T11:54:50.212Z,5.24
2023-02-07T11:55:51.526Z,5.08
2023-02-07T11:56:50.491Z,5.11
2023-02-07T11:57:50.552Z,5.21
2023-02-07T11:58:50.595Z,5.24
2023-02-07T11:59:50.647Z,5.28
2023-02-07T12:00:50.709Z,5.19
2023-02-07T12:01:51.529Z,5.15
2023-02-07T12:02:50.865Z,5.28
2023-02-07T12:03:50.970Z,5.36
2023-02-07T12:04:51.125Z,5.47
2023-02-07T12:05:51.163Z,5.50
2023-02-07T12:06:51.306Z,5.66
2023-02-07T12:07:51.360Z,5.71
2023-02-07T12:08:51.401Z,5.47
2023-02-07T12:09:51.460Z,5.38
2023-02-07T12:10:51.517Z,5.62
2023-02-07T12:11:51.584Z,5.64
2023-02-07T12:12:51.655Z,5.45
2023-02-07T12:13:51.703Z,5.59
2023-02-07T12:14:51.782Z,5.56
2023-02-07T12:15:51.924Z,5.70
2023-02-07T12:16:51.951Z,5.53
2023-02-07T12:17:52.184Z,5.31
2023-02-07T12:18:52.399Z,5.47
2023-02-07T12:19:52.629Z,5.45
2023-02-07T12:23:53.621Z,5.80
2023-02-07T12:45:58.292Z,6.31
2023-02-07T12:46:58.490Z,6.42
2023-02-07T12:47:58.690Z,6.37
2023-02-07T12:48:58.889Z,6.40
2023-02-07T12:49:59.085Z,6.31
2023-02-07T12:50:59.272Z,6.47
2023-02-07T12:51:59.468Z,6.53
2023-02-07T12:52:59.687Z,6.51
2023-02-07T12:53:59.910Z,6.57
2023-02-07T12:55:00.126Z,6.43
2023-02-07T12:56:00.319Z,6.49
2023-02-07T12:57:00.498Z,6.66
2023-02-07T12:58:00.706Z,6.59
2023-02-07T12:59:00.893Z,6.50
2023-02-07T13:00:01.154Z,6.57
2023-02-07T13:37:16.771Z,8.52
2023-02-07T13:39:08.213Z,8.48
2023-02-07T13:40:08.217Z,8.61
2023-02-07T13:41:08.196Z,8.61
2023-02-07T13:42:08.204Z,8.62
2023-02-07T13:43:08.224Z,8.48
2023-02-07T13:44:10.326Z,8.51
2023-02-07T13:45:08.229Z,8.61
2023-02-07T13:46:08.236Z,8.44
2023-02-07T13:47:08.232Z,8.16
2023-02-07T13:48:08.288Z,8.05
2023-02-07T13:49:08.345Z,8.19
2023-02-07T13:50:08.357Z,8.09
2023-02-07T13:51:08.404Z,8.10
2023-02-07T13:52:09.790Z,8.09
2023-02-07T13:53:08.477Z,8.16
2023-02-07T13:54:08.520Z,7.89
2023-02-07T13:55:08.565Z,7.99
2023-02-07T13:56:08.633Z,8.03
2023-02-07T13:57:08.672Z,8.13
2023-02-07T13:58:10.327Z,8.16
2023-02-07T13:59:58.571Z,8.26
2023-02-07T14:00:58.613Z,8.34
2023-02-07T14:01:58.695Z,8.36
2023-02-07T14:02:58.945Z,8.36
2023-02-07T14:03:59.059Z,8.37
2023-02-07T14:04:59.305Z,8.20
2023-02-07T14:05:59.429Z,8.19
2023-02-07T14:06:59.531Z,8.13
2023-02-07T14:07:59.740Z,8.14
2023-02-07T14:08:59.951Z,8.13
2023-02-07T14:10:00.057Z,8.23
2023-02-07T14:11:00.056Z,8.05
2023-02-07T14:12:00.106Z,8.14
2023-02-07T14:13:00.115Z,7.81
2023-02-07T14:14:00.090Z,7.93
2023-02-07T14:15:02.980Z,8.03
2023-02-07T14:16:00.152Z,8.08
2023-02-07T14:17:00.144Z,8.06
2023-02-07T14:18:00.140Z,8.17
2023-02-07T14:19:00.149Z,8.19
2023-02-07T14:20:00.193Z,8.23
2023-02-07T14:21:00.147Z,8.19
2023-02-07T14:22:00.168Z,8.06
2023-02-07T14:23:00.363Z,8.17
2023-02-07T14:24:00.562Z,8.20
2023-02-07T15:39:08.242Z,5.78
2023-02-07T15:40:08.427Z,5.84
2023-02-07T15:41:08.604Z,5.90
2023-02-07T15:42:08.905Z,5.84
2023-02-07T15:43:09.122Z,5.81
2023-02-07T15:44:09.343Z,5.81
2023-02-07T15:45:19.628Z,5.81
2023-02-07T15:47:09.668Z,5.84
2023-02-07T15:48:09.708Z,5.91
2023-02-07T15:49:09.745Z,5.90
2023-02-07T15:50:09.802Z,5.96
2023-02-07T15:51:09.842Z,5.97
2023-02-07T15:52:09.894Z,6.02
2023-02-07T15:53:09.936Z,6.04
2023-02-07T15:54:09.980Z,6.05
2023-02-07T15:55:10.043Z,6.05
2023-02-07T15:56:10.157Z,6.05
2023-02-07T15:57:10.242Z,6.05
2023-02-07T15:58:10.353Z,6.06
2023-02-07T15:59:10.465Z,6.02
2023-02-07T16:00:10.560Z,6.00
2023-02-07T16:02:10.783Z,5.94
2023-02-07T16:03:10.932Z,5.88
2023-02-07T16:04:11.008Z,5.88
2023-02-07T16:05:11.132Z,5.90
2023-02-07T16:06:11.271Z,5.91
2023-02-07T16:07:11.350Z,5.93
2023-02-07T16:41:18.283Z,5.54
2023-02-07T16:42:18.484Z,5.50
2023-02-07T16:43:18.673Z,5.47
2023-02-07T16:44:18.891Z,5.47
2023-02-07T16:45:19.110Z,5.46
2023-02-07T16:46:19.339Z,5.45
2023-02-07T16:47:19.553Z,5.43
2023-02-07T16:48:19.759Z,5.43
2023-02-07T16:49:19.976Z,5.45
2023-02-07T16:50:20.197Z,5.41
2023-02-07T16:51:20.411Z,5.41
2023-02-07T16:52:20.641Z,5.39
2023-02-07T17:41:28.173Z,4.91
2023-02-07T17:42:28.274Z,4.87
2023-02-07T17:43:28.399Z,4.83
2023-02-07T17:44:28.459Z,4.86
2023-02-07T17:45:28.559Z,4.86
2023-02-07T17:46:28.698Z,4.87
2023-02-07T17:47:28.778Z,4.90
2023-02-07T17:48:28.872Z,4.87
2023-02-07T17:49:28.973Z,4.88
2023-02-07T17:50:29.074Z,4.86
2023-02-07T17:51:29.182Z,4.87
2023-02-07T17:52:29.278Z,4.88
2023-02-07T17:53:29.365Z,4.86
2023-02-07T17:54:29.467Z,4.87
2023-02-07T17:55:29.562Z,4.83
2023-02-07T17:56:29.653Z,4.87
2023-02-07T17:57:29.783Z,4.83
2023-02-07T17:58:29.861Z,4.84
2023-02-07T17:59:29.965Z,4.84
2023-02-07T18:00:30.056Z,4.84
2023-02-07T18:01:30.175Z,4.79
2023-02-07T18:02:30.306Z,4.79
2023-02-07T18:03:30.369Z,4.80
2023-02-07T18:04:30.473Z,4.77
2023-02-07T18:05:30.674Z,4.77
2023-02-07T18:06:30.725Z,4.79
2023-02-07T18:07:30.811Z,4.74
2023-02-07T18:08:30.904Z,4.73
2023-02-07T18:09:30.992Z,4.72
2023-02-07T18:10:31.079Z,4.73
2023-02-07T18:11:31.208Z,4.72
2023-02-07T18:12:31.268Z,4.69
2023-02-07T18:13:31.369Z,4.69
2023-02-07T18:14:31.514Z,4.72
2023-02-07T18:15:31.641Z,4.67
2023-02-07T18:16:31.721Z,4.65
2023-02-07T18:17:31.811Z,4.65
2023-02-07T18:18:31.914Z,4.65
2023-02-07T18:19:32.026Z,4.60
2023-02-07T18:20:32.127Z,4.60
2023-02-07T18:21:32.225Z,4.59
2023-02-07T18:22:32.342Z,4.60
2023-02-07T18:23:32.446Z,4.60
2023-02-07T18:24:32.561Z,4.56
2023-02-07T18:25:32.660Z,4.58
2023-02-07T18:26:32.783Z,4.53
2023-02-07T18:27:32.891Z,4.52
2023-02-07T18:28:33.006Z,4.53
2023-02-07T18:29:33.112Z,4.51
2023-02-07T18:30:33.254Z,4.48
2023-02-07T18:31:33.397Z,4.51
2023-02-07T18:32:33.500Z,4.49
2023-02-07T18:33:33.629Z,4.51
2023-02-07T18:34:33.761Z,4.48
2023-02-07T18:35:33.904Z,4.45
2023-02-07T19:05:38.164Z,4.07
2023-02-07T19:06:38.327Z,4.08
2023-02-07T19:07:38.459Z,4.05
2023-02-07T19:08:38.609Z,4.10
2023-02-07T19:09:38.751Z,4.11
2023-02-07T19:10:39.193Z,4.11
2023-02-07T19:11:39.026Z,4.10
2023-02-07T19:12:39.142Z,4.13
2023-02-07T19:13:39.257Z,4.14
2023-02-07T19:14:39.378Z,4.14
2023-02-07T19:15:39.524Z,4.14
2023-02-07T19:16:39.622Z,4.14
2023-02-07T19:17:39.750Z,4.13
2023-02-07T19:18:39.893Z,4.13
2023-02-07T19:19:40.035Z,4.13
2023-02-07T19:20:40.528Z,4.11
2023-02-07T19:21:40.328Z,4.11
2023-02-07T19:22:41.451Z,4.10
2023-02-07T19:23:40.626Z,4.10
2023-02-07T19:24:40.778Z,4.08
2023-02-07T19:25:40.937Z,4.08
2023-02-07T19:26:41.068Z,4.07
2023-02-07T19:27:41.220Z,4.10
2023-02-07T19:28:41.364Z,4.07
2023-02-07T19:29:41.505Z,4.10
2023-02-07T19:30:42.129Z,4.10
2023-02-07T19:31:41.827Z,4.04
2023-02-07T19:32:41.957Z,4.05
2023-02-07T19:33:42.084Z,4.04
2023-02-07T19:34:42.238Z,4.05
2023-02-07T19:35:42.376Z,4.05
2023-02-07T19:36:42.535Z,4.04
2023-02-07T19:37:42.706Z,4.03
2023-02-07T19:38:42.824Z,4.03
2023-02-07T19:39:42.970Z,4.00
2023-02-07T19:40:43.106Z,4.01
2023-02-07T19:41:43.225Z,4.00
2023-02-07T19:42:43.398Z,4.00
2023-02-07T19:43:43.505Z,3.97
2023-02-07T19:44:43.644Z,3.97
2023-02-07T19:45:43.762Z,3.97
2023-02-07T19:46:44.019Z,3.94
2023-02-07T19:47:44.027Z,3.97
2023-02-07T19:48:44.162Z,3.96
2023-02-07T19:49:44.293Z,3.96
2023-02-07T19:50:44.447Z,3.94
2023-02-07T19:51:44.634Z,3.93
2023-02-07T20:25:48.115Z,3.59
2023-02-07T20:26:48.207Z,3.58
2023-02-07T20:27:48.332Z,3.57
2023-02-07T20:28:48.446Z,3.58
2023-02-07T20:29:48.582Z,3.58
2023-02-07T20:30:48.689Z,3.59
2023-02-07T20:31:48.899Z,3.57
2023-02-07T20:32:48.904Z,3.55
2023-02-07T20:33:49.015Z,3.52
2023-02-07T20:34:49.152Z,3.51
2023-02-07T20:35:49.261Z,3.51
2023-02-07T20:36:49.382Z,3.52
2023-02-07T20:37:49.487Z,3.51
2023-02-07T20:38:49.636Z,3.48
2023-02-07T20:39:49.749Z,3.45
2023-02-07T21:55:58.132Z,3.10
2023-02-07T21:56:58.217Z,3.07
2023-02-07T21:57:58.328Z,3.07
2023-02-07T21:59:58.538Z,3.04
2023-02-07T23:24:08.210Z,2.34
2023-02-07T23:25:08.322Z,2.31
2023-02-07T23:26:08.465Z,2.29
2023-02-07T23:27:08.594Z,2.19
2023-02-07T23:28:08.760Z,2.23
2023-02-07T23:29:08.843Z,2.20
2023-02-07T23:30:09.008Z,2.21
2023-02-07T23:31:09.255Z,2.21
2023-02-07T23:32:09.239Z,2.24
2023-02-07T23:33:09.375Z,2.27
2023-02-07T23:34:09.529Z,2.21
2023-02-07T23:35:09.698Z,2.17
2023-02-07T23:36:09.826Z,2.17
2023-02-07T23:37:09.981Z,2.24
2023-02-07T23:38:10.123Z,2.21
2023-02-07T23:39:10.267Z,2.24
2023-02-07T23:40:10.409Z,2.21
2023-02-07T23:41:10.549Z,2.23
2023-02-07T23:42:10.678Z,2.23
2023-02-07T23:43:10.822Z,2.23
2023-02-07T23:44:10.944Z,2.20
2023-02-07T23:45:11.087Z,2.23
2023-02-07T23:46:11.268Z,2.27
2023-02-07T23:47:11.337Z,2.24
2023-02-07T23:48:11.466Z,2.27
2023-02-07T23:49:11.648Z,2.30
